createdAt,value
2018-08-23T00:01:08.495Z,96.00
2018-08-23T00:03:38.189Z,95.80
2018-08-23T00:06:06.307Z,95.80
2018-08-23T00:08:34.428Z,95.70
2018-08-23T00:11:02.544Z,96.20
2018-08-23T00:13:34.914Z,96.30
2018-08-23T00:16:03.039Z,96.20
2018-08-23T00:18:31.162Z,96.30
2018-08-23T00:20:59.307Z,96.20
2018-08-23T00:23:27.431Z,96.20
2018-08-23T00:25:55.539Z,96.30
2018-08-23T00:28:23.672Z,96.40
2018-08-23T00:30:51.820Z,96.60
2018-08-23T00:33:19.934Z,96.50
2018-08-23T00:35:48.062Z,96.70
2018-08-23T00:38:16.845Z,96.70
2018-08-23T00:40:45.324Z,96.80
2018-08-23T00:43:14.544Z,96.90
2018-08-23T00:45:42.632Z,96.90
2018-08-23T00:48:10.799Z,97.10
2018-08-23T00:50:55.032Z,97.20
2018-08-23T00:53:23.216Z,97.60
2018-08-23T00:56:03.569Z,97.20
2018-08-23T00:58:31.668Z,97.50
2018-08-23T01:01:02.807Z,97.50
2018-08-23T01:03:31.184Z,97.60
2018-08-23T01:05:59.300Z,97.80
2018-08-23T01:08:34.145Z,97.70
2018-08-23T01:11:03.164Z,97.90
2018-08-23T01:13:31.335Z,98.20
2018-08-23T01:15:59.442Z,98.10
2018-08-23T01:18:27.562Z,98.20
2018-08-23T01:20:55.695Z,98.40
2018-08-23T01:23:23.818Z,98.30
2018-08-23T01:25:52.209Z,98.30
2018-08-23T01:28:20.335Z,98.60
2018-08-23T01:30:49.081Z,98.70
2018-08-23T01:33:20.329Z,98.60
2018-08-23T01:35:49.623Z,98.70
2018-08-23T01:38:18.039Z,98.70
2018-08-23T01:40:46.495Z,98.90
2018-08-23T01:43:14.716Z,98.80
2018-08-23T01:45:42.832Z,99.00
2018-08-23T01:48:11.431Z,99.00
2018-08-23T01:50:39.625Z,98.90
2018-08-23T01:53:07.757Z,99.10
2018-08-23T01:55:35.871Z,99.10
2018-08-23T01:58:03.996Z,99.10
2018-08-23T02:00:34.348Z,99.40
2018-08-23T02:03:03.073Z,99.50
2018-08-23T02:05:31.162Z,99.40
2018-08-23T02:07:59.616Z,99.50
2018-08-23T02:10:27.713Z,99.50
2018-08-23T02:12:56.977Z,99.70
2018-08-23T02:15:25.088Z,99.60
2018-08-23T02:17:56.312Z,99.70
2018-08-23T02:20:25.487Z,99.60
2018-08-23T02:22:54.186Z,99.60
2018-08-23T02:25:22.273Z,99.60
2018-08-23T02:27:58.152Z,99.90
2018-08-23T02:30:40.822Z,99.90
2018-08-23T02:33:10.029Z,99.90
2018-08-23T02:35:38.287Z,99.90
2018-08-23T02:38:06.727Z,99.90
2018-08-23T02:40:35.112Z,99.80
2018-08-23T02:43:03.298Z,99.90
2018-08-23T02:45:36.103Z,99.80
2018-08-23T02:48:04.607Z,99.90
2018-08-23T02:50:32.700Z,99.90
2018-08-23T02:53:07.089Z,99.90
2018-08-23T02:55:38.868Z,99.90
2018-08-23T02:58:08.192Z,99.90
2018-08-23T03:00:41.920Z,99.90
2018-08-23T03:03:10.013Z,99.90
2018-08-23T03:05:39.327Z,99.90
2018-08-23T03:08:07.463Z,99.90
2018-08-23T03:10:35.944Z,99.90
2018-08-23T03:13:04.087Z,99.90
2018-08-23T03:15:32.210Z,99.90
2018-08-23T03:18:00.312Z,99.90
2018-08-23T03:20:28.438Z,99.90
2018-08-23T03:22:56.970Z,99.90
2018-08-23T03:25:26.020Z,99.90
2018-08-23T03:27:54.760Z,99.90
2018-08-23T03:30:23.443Z,99.90
2018-08-23T03:32:51.578Z,99.90
2018-08-23T03:35:19.701Z,99.90
2018-08-23T03:37:47.815Z,99.90
2018-08-23T03:40:16.873Z,99.90
2018-08-23T03:42:44.980Z,99.90
2018-08-23T03:45:18.632Z,99.90
2018-08-23T03:47:51.311Z,99.90
2018-08-23T03:50:19.496Z,99.90
2018-08-23T03:52:49.823Z,99.90
2018-08-23T03:55:18.872Z,99.90
2018-08-23T03:58:06.731Z,99.90
2018-08-23T04:00:41.312Z,99.90
2018-08-23T04:03:16.743Z,99.90
2018-08-23T04:05:44.883Z,99.90
2018-08-23T04:08:12.961Z,99.90
2018-08-23T04:10:41.051Z,99.90
2018-08-23T04:13:09.150Z,99.90
2018-08-23T04:15:37.267Z,99.90
2018-08-23T04:18:10.953Z,99.90
2018-08-23T04:20:55.151Z,99.90
2018-08-23T04:23:23.256Z,99.90
2018-08-23T04:25:51.377Z,99.90
2018-08-23T04:28:19.484Z,99.90
2018-08-23T04:30:47.599Z,99.90
2018-08-23T04:33:15.724Z,99.90
2018-08-23T04:35:43.872Z,99.90
2018-08-23T04:38:11.995Z,99.90
2018-08-23T04:40:45.453Z,99.90
2018-08-23T04:43:13.588Z,99.90
2018-08-23T04:45:41.676Z,99.90
2018-08-23T04:48:09.799Z,99.90
2018-08-23T04:50:39.071Z,99.90
2018-08-23T04:53:07.202Z,99.90
2018-08-23T04:55:35.368Z,99.90
2018-08-23T04:58:04.124Z,99.90
2018-08-23T05:00:32.496Z,99.90
2018-08-23T05:03:00.635Z,99.90
2018-08-23T05:05:28.787Z,99.90
2018-08-23T05:07:56.896Z,99.90
2018-08-23T05:10:25.002Z,99.90
2018-08-23T05:12:53.126Z,99.90
2018-08-23T05:15:21.220Z,99.90
2018-08-23T05:17:49.343Z,99.90
2018-08-23T05:20:17.443Z,99.90
2018-08-23T05:22:51.790Z,99.90
2018-08-23T05:25:23.024Z,99.90
2018-08-23T05:28:08.138Z,99.90
2018-08-23T05:30:36.231Z,99.90
2018-08-23T05:33:08.579Z,99.90
2018-08-23T05:35:36.667Z,99.90
2018-08-23T05:38:06.413Z,99.90
2018-08-23T05:40:40.125Z,99.90
2018-08-23T05:43:08.244Z,99.90
2018-08-23T05:45:41.708Z,99.90
2018-08-23T05:48:30.680Z,99.90
2018-08-23T05:51:00.822Z,99.90
2018-08-23T05:53:28.928Z,99.90
2018-08-23T05:55:58.406Z,99.90
2018-08-23T05:58:30.791Z,99.90
2018-08-23T06:00:58.921Z,99.90
2018-08-23T06:03:27.069Z,99.90
2018-08-23T06:05:56.331Z,99.90
2018-08-23T06:08:24.523Z,99.90
2018-08-23T06:10:58.133Z,99.90
2018-08-23T06:13:26.273Z,99.90
2018-08-23T06:15:55.583Z,99.90
2018-08-23T06:18:24.498Z,99.90
2018-08-23T06:20:52.603Z,99.90
2018-08-23T06:23:20.838Z,99.90
2018-08-23T06:25:49.433Z,99.90
2018-08-23T06:28:21.412Z,99.90
2018-08-23T06:30:49.598Z,99.90
2018-08-23T06:33:33.532Z,99.90
2018-08-23T06:36:02.004Z,99.90
2018-08-23T06:38:30.688Z,99.90
2018-08-23T06:41:01.112Z,99.90
2018-08-23T06:43:29.372Z,99.90
2018-08-23T06:45:57.896Z,99.70
2018-08-23T06:48:26.018Z,99.40
2018-08-23T06:50:55.185Z,98.80
2018-08-23T06:53:29.287Z,98.30
2018-08-23T06:55:57.443Z,98.10
2018-08-23T06:58:25.584Z,98.00
2018-08-23T07:00:53.713Z,97.50
2018-08-23T07:03:21.880Z,97.70
2018-08-23T07:05:50.032Z,97.10
2018-08-23T07:08:18.146Z,96.90
2018-08-23T07:10:46.307Z,96.60
2018-08-23T07:13:14.420Z,96.40
2018-08-23T07:15:46.994Z,96.20
2018-08-23T07:18:20.317Z,96.00
2018-08-23T07:20:48.449Z,96.00
2018-08-23T07:23:28.553Z,95.90
2018-08-23T07:25:56.686Z,95.80
2018-08-23T07:28:24.795Z,95.40
2018-08-23T07:30:53.853Z,95.30
2018-08-23T07:33:21.991Z,95.30
2018-08-23T07:36:00.140Z,94.90
2018-08-23T07:38:28.266Z,94.70
2018-08-23T07:40:56.402Z,94.80
2018-08-23T07:43:24.506Z,94.80
2018-08-23T07:45:52.642Z,94.50
2018-08-23T07:48:20.772Z,94.40
2018-08-23T07:50:48.914Z,94.30
2018-08-23T07:53:18.460Z,94.10
2018-08-23T07:55:46.471Z,94.00
2018-08-23T07:58:14.721Z,93.60
2018-08-23T08:00:43.823Z,93.70
2018-08-23T08:03:13.189Z,93.20
2018-08-23T08:05:42.593Z,93.20
2018-08-23T08:08:11.790Z,93.00
2018-08-23T08:10:41.605Z,92.80
2018-08-23T08:13:09.735Z,92.80
2018-08-23T08:15:37.888Z,92.80
2018-08-23T08:18:10.730Z,92.30
2018-08-23T08:20:38.864Z,92.30
2018-08-23T08:23:07.120Z,92.50
2018-08-23T08:25:35.271Z,91.90
2018-08-23T08:28:03.365Z,91.50
2018-08-23T08:30:40.333Z,91.60
2018-08-23T08:33:10.144Z,91.20
2018-08-23T08:35:42.000Z,90.90
2018-08-23T08:38:10.418Z,91.40
2018-08-23T08:40:38.614Z,91.20
2018-08-23T08:43:07.284Z,91.10
2018-08-23T08:45:35.468Z,91.20
2018-08-23T08:48:17.214Z,90.40
2018-08-23T08:50:55.949Z,90.00
2018-08-23T08:53:24.091Z,89.90
2018-08-23T08:55:52.216Z,90.10
2018-08-23T08:58:20.377Z,89.70
2018-08-23T09:00:51.083Z,89.50
2018-08-23T09:03:20.290Z,89.10
2018-08-23T09:05:48.446Z,89.20
2018-08-23T09:08:16.556Z,88.60
2018-08-23T09:10:44.672Z,88.50
2018-08-23T09:13:12.796Z,89.20
2018-08-23T09:15:41.619Z,88.80
2018-08-23T09:18:09.728Z,89.20
2018-08-23T09:20:37.938Z,89.10
2018-08-23T09:23:06.128Z,88.40
2018-08-23T09:25:39.805Z,87.20
2018-08-23T09:28:07.917Z,86.40
2018-08-23T09:30:36.061Z,86.90
2018-08-23T09:33:09.241Z,85.80
2018-08-23T09:35:37.360Z,86.80
2018-08-23T09:38:10.822Z,87.10
2018-08-23T09:40:38.936Z,86.60
2018-08-23T09:43:07.154Z,86.10
2018-08-23T09:45:36.069Z,85.70
2018-08-23T09:48:04.249Z,86.20
2018-08-23T09:50:32.424Z,86.20
2018-08-23T09:53:00.525Z,85.70
2018-08-23T09:55:29.791Z,84.80
2018-08-23T09:57:58.060Z,84.40
2018-08-23T10:03:10.974Z,83.60
2018-08-23T10:05:47.672Z,83.00
2018-08-23T10:08:22.113Z,84.10
2018-08-23T10:10:55.709Z,83.20
2018-08-23T10:13:29.168Z,83.00
2018-08-23T10:16:02.637Z,82.60
2018-08-23T10:18:36.177Z,82.70
2018-08-23T10:21:04.590Z,82.70
2018-08-23T10:23:33.410Z,81.70
2018-08-23T10:26:33.432Z,82.30
2018-08-23T10:29:01.566Z,81.00
2018-08-23T10:31:29.670Z,81.30
2018-08-23T10:33:57.849Z,81.60
2018-08-23T10:36:25.980Z,81.80
2018-08-23T10:38:54.145Z,81.70
2018-08-23T10:41:22.265Z,82.10
2018-08-23T10:43:50.422Z,80.80
2018-08-23T10:46:18.561Z,81.40
2018-08-23T10:48:46.753Z,81.30
2018-08-23T10:51:14.888Z,82.30
2018-08-23T10:53:43.444Z,81.50
2018-08-23T10:56:11.568Z,80.50
2018-08-23T10:58:39.734Z,80.50
2018-08-23T11:01:07.852Z,80.60
2018-08-23T11:03:35.990Z,80.70
2018-08-23T11:06:04.162Z,80.10
2018-08-23T11:08:33.796Z,79.60
2018-08-23T11:11:07.316Z,79.60
2018-08-23T11:13:40.705Z,79.10
2018-08-23T11:16:14.309Z,78.80
2018-08-23T11:18:47.793Z,79.40
2018-08-23T11:21:17.029Z,78.80
2018-08-23T11:23:45.792Z,77.80
2018-08-23T11:26:21.356Z,78.10
2018-08-23T11:28:49.968Z,77.80
2018-08-23T11:31:23.488Z,77.20
2018-08-23T11:33:51.916Z,76.70
2018-08-23T11:36:20.029Z,76.80
2018-08-23T11:38:48.284Z,76.60
2018-08-23T11:41:16.430Z,76.30
2018-08-23T11:43:44.533Z,76.60
2018-08-23T11:46:13.231Z,76.60
2018-08-23T11:48:42.449Z,76.30
2018-08-23T11:51:10.886Z,76.40
2018-08-23T11:53:39.246Z,76.60
2018-08-23T11:56:07.438Z,76.10
2018-08-23T11:58:35.549Z,75.90
2018-08-23T12:01:09.648Z,74.60
2018-08-23T12:03:38.199Z,74.80
2018-08-23T12:06:06.895Z,74.80
2018-08-23T12:08:35.105Z,75.00
2018-08-23T12:11:03.252Z,74.10
2018-08-23T12:13:31.412Z,73.20
2018-08-23T12:16:00.071Z,73.20
2018-08-23T12:18:32.780Z,73.00
2018-08-23T12:21:00.890Z,72.80
2018-08-23T12:23:28.993Z,70.90
2018-08-23T12:25:57.212Z,71.80
2018-08-23T12:28:30.609Z,71.80
2018-08-23T12:30:58.751Z,70.10
2018-08-23T12:33:26.873Z,69.20
2018-08-23T12:35:54.993Z,68.70
2018-08-23T12:40:30.776Z,69.80
2018-08-23T12:42:58.987Z,68.60
2018-08-23T12:45:27.126Z,69.00
2018-08-23T12:47:55.271Z,68.20
2018-08-23T12:50:23.424Z,68.00
2018-08-23T12:52:51.628Z,67.20
2018-08-23T12:55:19.734Z,66.90
2018-08-23T12:57:47.852Z,66.50
2018-08-23T13:00:16.008Z,66.00
2018-08-23T13:02:44.268Z,67.10
2018-08-23T13:05:12.290Z,66.50
2018-08-23T13:07:40.425Z,66.60
2018-08-23T13:10:08.537Z,66.20
2018-08-23T13:12:36.692Z,67.20
2018-08-23T13:15:04.815Z,66.10
2018-08-23T13:17:32.960Z,65.60
2018-08-23T13:20:01.065Z,66.20
2018-08-23T13:22:34.573Z,66.00
2018-08-23T13:25:04.699Z,66.10
2018-08-23T13:27:32.960Z,65.70
2018-08-23T13:30:01.780Z,65.60
2018-08-23T13:32:29.965Z,65.00
2018-08-23T13:34:58.712Z,66.00
2018-08-23T13:37:26.997Z,66.80
2018-08-23T13:39:55.673Z,67.20
2018-08-23T13:42:23.813Z,66.70
2018-08-23T13:44:51.928Z,66.10
2018-08-23T13:47:20.108Z,65.20
2018-08-23T13:49:48.992Z,63.90
2018-08-23T13:52:17.112Z,64.80
2018-08-23T13:54:46.390Z,64.90
2018-08-23T13:57:14.516Z,65.70
2018-08-23T13:59:42.779Z,66.30
2018-08-23T14:02:11.115Z,66.60
2018-08-23T14:04:39.257Z,66.60
2018-08-23T14:07:07.407Z,66.80
2018-08-23T14:09:35.590Z,66.00
2018-08-23T14:12:03.699Z,65.50
2018-08-23T14:14:31.807Z,64.90
2018-08-23T14:17:00.362Z,65.80
2018-08-23T14:19:28.484Z,66.20
2018-08-23T14:21:56.592Z,67.00
2018-08-23T14:24:24.696Z,66.90
2018-08-23T14:26:52.809Z,66.50
2018-08-23T14:29:20.908Z,68.20
2018-08-23T14:31:49.012Z,67.20
2018-08-23T14:34:17.116Z,66.70
2018-08-23T14:36:45.256Z,65.30
2018-08-23T14:39:13.372Z,64.90
2018-08-23T14:41:41.476Z,66.20
2018-08-23T14:44:09.931Z,66.90
2018-08-23T14:46:43.795Z,66.80
2018-08-23T14:49:16.024Z,66.90
2018-08-23T14:51:44.204Z,67.20
2018-08-23T14:54:17.548Z,67.70
2018-08-23T14:56:51.104Z,68.10
2018-08-23T14:59:19.215Z,67.80
2018-08-23T15:01:47.365Z,67.40
2018-08-23T15:04:15.493Z,67.30
2018-08-23T15:06:43.614Z,66.60
2018-08-23T15:09:11.806Z,66.30
2018-08-23T15:11:39.943Z,66.30
2018-08-23T15:14:08.284Z,66.60
2018-08-23T15:16:36.348Z,66.50
2018-08-23T15:19:04.484Z,66.40
2018-08-23T15:21:32.613Z,66.20
2018-08-23T15:24:00.740Z,66.00
2018-08-23T15:26:29.041Z,65.80
2018-08-23T15:28:56.980Z,65.50
2018-08-23T15:31:25.128Z,65.70
2018-08-23T15:33:53.342Z,65.70
2018-08-23T15:36:21.451Z,65.80
2018-08-23T15:38:49.581Z,65.70
2018-08-23T15:41:17.719Z,66.50
2018-08-23T15:43:47.694Z,66.20
2018-08-23T15:46:15.907Z,66.70
2018-08-23T15:48:44.058Z,66.70
2018-08-23T15:51:12.185Z,67.30
2018-08-23T15:53:40.302Z,67.30
2018-08-23T15:56:08.452Z,68.30
2018-08-23T15:58:36.516Z,67.90
2018-08-23T16:01:04.625Z,68.10
2018-08-23T16:03:32.781Z,68.30
2018-08-23T16:06:00.885Z,68.60
2018-08-23T16:08:29.008Z,68.70
2018-08-23T16:10:57.124Z,69.20
2018-08-23T16:13:25.225Z,69.10
2018-08-23T16:15:58.982Z,69.50
2018-08-23T16:18:32.400Z,69.60
2018-08-23T16:21:01.248Z,70.00
2018-08-23T16:23:29.363Z,70.50
2018-08-23T16:25:57.460Z,70.80
2018-08-23T16:28:25.562Z,70.90
2018-08-23T16:30:53.678Z,70.70
2018-08-23T16:33:21.782Z,71.30
2018-08-23T16:35:49.895Z,71.80
2018-08-23T16:38:17.989Z,71.80
2018-08-23T16:40:46.105Z,71.80
2018-08-23T16:43:14.220Z,71.70
2018-08-23T16:45:42.341Z,72.20
2018-08-23T16:48:10.444Z,71.50
2018-08-23T16:50:38.550Z,71.30
2018-08-23T16:53:06.695Z,72.00
2018-08-23T16:55:34.753Z,72.10
2018-08-23T16:58:02.883Z,72.30
2018-08-23T17:00:30.988Z,72.80
2018-08-23T17:02:59.095Z,72.30
2018-08-23T17:05:27.244Z,72.20
2018-08-23T17:07:55.385Z,72.60
2018-08-23T17:10:23.521Z,72.70
2018-08-23T17:12:51.645Z,72.80
2018-08-23T17:15:19.759Z,72.90
2018-08-23T17:17:53.427Z,72.70
2018-08-23T17:20:21.540Z,73.00
2018-08-23T17:22:49.663Z,72.90
2018-08-23T17:25:17.873Z,72.70
2018-08-23T17:27:45.957Z,72.90
2018-08-23T17:30:14.053Z,73.20
2018-08-23T17:32:42.171Z,73.50
2018-08-23T17:35:10.295Z,73.70
2018-08-23T17:37:38.409Z,73.80
2018-08-23T17:40:06.520Z,74.10
2018-08-23T17:42:40.075Z,73.90
2018-08-23T17:45:08.212Z,74.20
2018-08-23T17:47:36.349Z,74.30
2018-08-23T17:50:04.484Z,74.50
2018-08-23T17:52:32.608Z,74.90
2018-08-23T17:55:00.720Z,75.00
2018-08-23T17:57:28.857Z,75.30
2018-08-23T17:59:57.000Z,75.30
2018-08-23T18:02:25.119Z,75.40
2018-08-23T18:04:53.332Z,75.60
2018-08-23T18:07:22.289Z,76.00
2018-08-23T18:09:50.438Z,76.00
2018-08-23T18:12:18.572Z,76.50
2018-08-23T18:14:46.706Z,76.80
2018-08-23T18:17:14.851Z,76.80
2018-08-23T18:19:42.961Z,77.10
2018-08-23T18:22:11.096Z,77.30
2018-08-23T18:24:39.252Z,77.30
2018-08-23T18:27:07.366Z,77.60
2018-08-23T18:29:35.519Z,77.90
2018-08-23T18:32:04.694Z,78.00
2018-08-23T18:34:32.805Z,78.30
2018-08-23T18:37:00.993Z,79.00
2018-08-23T18:39:29.116Z,78.80
2018-08-23T18:41:57.225Z,79.60
2018-08-23T18:44:25.360Z,80.00
2018-08-23T18:46:53.480Z,80.30
2018-08-23T18:49:21.617Z,80.40
2018-08-23T18:51:49.845Z,80.80
2018-08-23T18:54:18.021Z,81.60
2018-08-23T18:56:46.145Z,82.50
2018-08-23T18:59:14.360Z,82.10
2018-08-23T19:01:42.501Z,82.40
2018-08-23T19:04:10.761Z,82.60
2018-08-23T19:06:39.028Z,83.40
2018-08-23T19:09:09.964Z,84.00
2018-08-23T19:11:38.119Z,84.30
2018-08-23T19:14:06.311Z,84.70
2018-08-23T19:16:46.600Z,84.50
2018-08-23T19:19:14.762Z,84.60
2018-08-23T19:21:42.939Z,85.00
2018-08-23T19:24:11.068Z,85.50
2018-08-23T19:26:39.219Z,86.20
2018-08-23T19:29:07.391Z,86.80
2018-08-23T19:31:35.561Z,86.70
2018-08-23T19:34:04.028Z,86.60
2018-08-23T19:36:32.156Z,87.10
2018-08-23T19:39:00.284Z,87.30
2018-08-23T19:41:28.391Z,87.80
2018-08-23T19:43:56.525Z,88.20
2018-08-23T19:46:30.356Z,88.30
2018-08-23T19:49:04.186Z,88.30
2018-08-23T19:51:32.345Z,88.70
2018-08-23T19:54:00.466Z,89.00
2018-08-23T19:56:28.577Z,89.30
2018-08-23T19:58:56.713Z,90.40
2018-08-23T20:01:24.829Z,90.30
2018-08-23T20:03:52.945Z,90.20
2018-08-23T20:06:21.118Z,90.30
2018-08-23T20:08:54.984Z,90.40
2018-08-23T20:11:23.084Z,90.50
2018-08-23T20:13:51.260Z,90.50
2018-08-23T20:16:19.375Z,90.70
2018-08-23T20:18:47.484Z,90.70
2018-08-23T20:21:15.608Z,90.60
2018-08-23T20:23:43.745Z,90.80
2018-08-23T20:26:11.832Z,90.80
2018-08-23T20:28:39.974Z,90.80
2018-08-23T20:31:08.160Z,90.80
2018-08-23T20:33:36.272Z,90.90
2018-08-23T20:36:04.379Z,91.00
2018-08-23T20:38:32.731Z,91.00
2018-08-23T20:41:00.840Z,91.50
2018-08-23T20:43:28.949Z,91.60
2018-08-23T20:45:57.060Z,91.80
2018-08-23T20:48:25.168Z,92.10
2018-08-23T20:50:53.376Z,92.10
2018-08-23T20:53:21.472Z,92.30
2018-08-23T20:55:49.576Z,92.40
2018-08-23T20:58:17.862Z,92.40
2018-08-23T21:00:45.977Z,92.50
2018-08-23T21:03:14.071Z,92.60
2018-08-23T21:05:42.196Z,92.60
2018-08-23T21:08:10.397Z,92.60
2018-08-23T21:10:38.540Z,92.80
2018-08-23T21:13:06.666Z,93.00
2018-08-23T21:15:37.509Z,92.90
2018-08-23T21:18:07.832Z,92.80
2018-08-23T21:20:35.958Z,93.20
2018-08-23T21:23:04.265Z,92.90
2018-08-23T21:25:32.396Z,93.10
2018-08-23T21:28:00.529Z,93.20
2018-08-23T21:30:28.688Z,93.30
2018-08-23T21:32:56.800Z,93.50
2018-08-23T21:35:24.926Z,93.40
2018-08-23T21:37:53.124Z,93.50
2018-08-23T21:40:21.253Z,93.70
2018-08-23T21:42:49.370Z,93.80
2018-08-23T21:45:18.584Z,93.90
2018-08-23T21:47:46.688Z,94.00
2018-08-23T21:50:14.904Z,94.00
2018-08-23T21:52:43.088Z,94.00
2018-08-23T21:55:11.232Z,94.00
2018-08-23T21:57:39.368Z,93.90
2018-08-23T22:00:07.752Z,93.80
2018-08-23T22:02:35.893Z,93.90
2018-08-23T22:05:04.088Z,94.10
2018-08-23T22:07:32.202Z,94.30
2018-08-23T22:10:00.485Z,94.50
2018-08-23T22:12:28.560Z,94.80
2018-08-23T22:14:56.685Z,95.00
2018-08-23T22:17:24.812Z,95.00
2018-08-23T22:19:53.337Z,95.00
2018-08-23T22:22:21.467Z,95.10
2018-08-23T22:24:49.598Z,95.20
2018-08-23T22:27:17.816Z,95.50
2018-08-23T22:29:45.976Z,95.80
2018-08-23T22:32:20.429Z,95.50
2018-08-23T22:34:48.552Z,95.60
2018-08-23T22:37:16.711Z,95.60
2018-08-23T22:39:44.842Z,95.80
2018-08-23T22:42:12.969Z,96.20
2018-08-23T22:44:41.085Z,96.60
2018-08-23T22:47:09.221Z,96.90
2018-08-23T22:49:37.371Z,96.80
2018-08-23T22:52:05.455Z,96.80
2018-08-23T22:54:33.563Z,97.00
2018-08-23T22:57:01.684Z,97.10
2018-08-23T22:59:29.801Z,97.10
2018-08-23T23:01:57.937Z,97.00
2018-08-23T23:04:28.179Z,96.90
2018-08-23T23:06:57.076Z,97.00
2018-08-23T23:09:25.204Z,97.10
2018-08-23T23:11:53.331Z,97.20
2018-08-23T23:14:21.444Z,97.40
2018-08-23T23:16:53.472Z,97.90
2018-08-23T23:19:21.972Z,98.00
2018-08-23T23:21:50.089Z,98.30
2018-08-23T23:24:23.677Z,98.30
2018-08-23T23:26:51.825Z,97.80
2018-08-23T23:29:19.948Z,97.80
2018-08-23T23:31:48.072Z,97.70
2018-08-23T23:34:16.287Z,97.60
2018-08-23T23:36:44.418Z,97.50
2018-08-23T23:39:12.520Z,97.40
2018-08-23T23:41:40.644Z,97.30
2018-08-23T23:44:08.743Z,97.20
2018-08-23T23:46:36.868Z,96.90
2018-08-23T23:49:04.964Z,96.70
2018-08-23T23:51:33.084Z,96.70
2018-08-23T23:54:01.189Z,96.80
2018-08-23T23:56:29.345Z,96.40
2018-08-23T23:58:57.427Z,96.30
